Bookmark and Share
Track history (hours):
 

Aegean Princess

Last reported at 2014-Apr-24 05:33 UTC. Time now 2014-Apr-24 05:56 UTC.
Position N 36°09' W 005°22'.

Length 100 m; draft 7 m.

Type: Ship. MMSI: 236111476.

NotesDate/timePositionNaut miles runAvg speedWind from/ knotsBaromVisibWave heightAir tempDewpointWater temp
2014-Apr-24 05:33N 36°09' W 005°22'0 0.0
2014-Apr-24 04:34N 36°09' W 005°22'1 1.2
2014-Apr-24 03:33N 36°08' W 005°23'0 0.0
2014-Apr-24 02:33N 36°08' W 005°23'0 0.1
2014-Apr-24 01:12N 36°08' W 005°23'0 0.1
2014-Apr-24 00:30N 36°08' W 005°23'0 0.1
2014-Apr-23 23:33N 36°08' W 005°23'0 0.1
2014-Apr-23 22:33N 36°08' W 005°23'0 0.1
2014-Apr-23 21:27N 36°08' W 005°23'0 0.0
2014-Apr-23 20:27N 36°08' W 005°23'0 0.2
2014-Apr-23 19:33N 36°08' W 005°23'0 0.2
2014-Apr-23 18:33N 36°08' W 005°23'1 1.4
2014-Apr-23 17:33N 36°07' W 005°22'3 3.0
2014-Apr-23 16:31N 36°09' W 005°18'0 0.1
2014-Apr-23 15:31N 36°09' W 005°18'0 0.1
2014-Apr-23 14:31N 36°09' W 005°19'0 0.0
2014-Apr-23 13:31N 36°09' W 005°19'0 0.0
2014-Apr-23 12:31N 36°09' W 005°18'0 0.0
2014-Apr-23 11:31N 36°09' W 005°19'0 0.0
2014-Apr-23 10:31N 36°09' W 005°19'0 0.1
2014-Apr-23 09:22N 36°09' W 005°18'0 0.0
2014-Apr-23 08:24N 36°09' W 005°18'0 0.1
2014-Apr-23 07:33N 36°09' W 005°19'0 0.0
2014-Apr-23 06:30N 36°09' W 005°19'0 0.3
2014-Apr-23 05:33N 36°08' W 005°19'3 2.9
2014-Apr-23 04:34N 36°08' W 005°22'0 0.2
2014-Apr-23 03:33N 36°08' W 005°22'0 0.0
2014-Apr-23 02:33N 36°08' W 005°22'0 0.0
2014-Apr-23 01:33N 36°08' W 005°22'0 0.0
2014-Apr-23 00:33N 36°08' W 005°22'0 0.1
2014-Apr-22 23:33N 36°08' W 005°22'0 0.1
2014-Apr-22 22:30N 36°08' W 005°22'0 0.0
2014-Apr-22 21:33N 36°08' W 005°22'0 0.0
2014-Apr-22 20:33N 36°08' W 005°22'3 2.6
2014-Apr-22 19:33N 36°06' W 005°21'4 3.4
2014-Apr-22 18:29N 36°09' W 005°19'0 0.1
2014-Apr-22 17:32N 36°09' W 005°18'0 0.0
2014-Apr-22 16:32N 36°09' W 005°18'0 0.0
2014-Apr-22 15:32N 36°09' W 005°18'0 0.1
2014-Apr-22 14:32N 36°09' W 005°19'0 0.0
2014-Apr-22 13:32N 36°09' W 005°18'0 0.0
2014-Apr-22 12:32N 36°09' W 005°18'0 0.0
2014-Apr-22 11:32N 36°09' W 005°18'0 0.0
2014-Apr-22 10:29N 36°09' W 005°19'0 0.0
2014-Apr-22 09:32N 36°09' W 005°19'0 0.0
2014-Apr-22 08:32N 36°09' W 005°19'0 0.0
2014-Apr-22 07:32N 36°09' W 005°19'0 0.0
2014-Apr-22 06:32N 36°09' W 005°19'0 0.1
2014-Apr-22 05:32N 36°09' W 005°19'0 0.0
2014-Apr-22 04:32N 36°09' W 005°19'0 0.0
2014-Apr-22 03:32N 36°08' W 005°19'0 0.0
2014-Apr-22 02:32N 36°08' W 005°19'0 0.0
2014-Apr-22 01:29N 36°09' W 005°19'5 5.6
2014-Apr-22 00:33N 36°03' W 005°20'1211.4
2014-Apr-21 23:30N 35°55' W 005°30'2 0.2
2014-Apr-21 14:17N 35°54' W 005°30'3 4.3
2014-Apr-21 13:33N 35°57' W 005°29'6 5.6
2014-Apr-21 12:33N 36°01' W 005°24'7 6.9
2014-Apr-21 11:33N 36°07' W 005°23'1 1.3
2014-Apr-21 10:33N 36°09' W 005°22'0 0.0
2014-Apr-21 09:33N 36°09' W 005°22'0 0.0
2014-Apr-21 08:33N 36°09' W 005°22'0 0.1
2014-Apr-21 07:34N 36°09' W 005°22'3 3.0
2014-Apr-21 06:33N 36°08' W 005°19'1 1.1
2014-Apr-21 05:33N 36°09' W 005°18'0 0.1
2014-Apr-21 04:27N 36°09' W 005°18'0 0.0
2014-Apr-21 03:33N 36°09' W 005°18'0 0.0
2014-Apr-21 02:30N 36°09' W 005°18'0 0.0
2014-Apr-21 01:33N 36°09' W 005°18'0 0.0
2014-Apr-21 00:30N 36°09' W 005°18'0 0.0
2014-Apr-20 23:33N 36°09' W 005°18'0 0.0
2014-Apr-20 22:33N 36°09' W 005°18'0 0.0
2014-Apr-20 21:33N 36°09' W 005°18'0 0.0
2014-Apr-20 20:33N 36°09' W 005°18'0 0.0
2014-Apr-20 19:30N 36°09' W 005°18'0 0.0
2014-Apr-20 18:33N 36°09' W 005°18'0 0.0
2014-Apr-20 17:33N 36°09' W 005°18'0 0.0
2014-Apr-20 16:33N 36°09' W 005°18'0 0.1
2014-Apr-20 15:33N 36°09' W 005°18'0 0.0
2014-Apr-20 14:33N 36°09' W 005°18'0 0.0
2014-Apr-20 13:33N 36°09' W 005°18'0 0.1
2014-Apr-20 12:27N 36°09' W 005°18'0 0.0
2014-Apr-20 11:27N 36°09' W 005°18'2 2.8
2014-Apr-20 10:33N 36°06' W 005°19'3 3.2
2014-Apr-20 09:32N 36°09' W 005°22'0 0.0
2014-Apr-20 08:32N 36°09' W 005°22'0 0.0
2014-Apr-20 07:32N 36°09' W 005°22'0 0.0
2014-Apr-20 06:32N 36°09' W 005°22'0 0.0
2014-Apr-20 05:32N 36°09' W 005°22'0 0.1
2014-Apr-20 04:33N 36°09' W 005°22'1 0.8
2014-Apr-20 03:33N 36°09' W 005°22'0 0.0
2014-Apr-20 02:27N 36°09' W 005°22'0 0.1
2014-Apr-20 01:24N 36°09' W 005°22'0 0.0
2014-Apr-20 00:33N 36°09' W 005°22'0 0.0
2014-Apr-19 23:33N 36°09' W 005°22'0 0.0
2014-Apr-19 22:33N 36°09' W 005°22'0 0.0
2014-Apr-19 21:33N 36°09' W 005°22'0 0.0
2014-Apr-19 20:12N 36°09' W 005°22'0 0.0
2014-Apr-19 19:33N 36°09' W 005°22'0 0.0
2014-Apr-19 18:32N 36°09' W 005°22'0 0.0
2014-Apr-19 17:32N 36°09' W 005°22'0 0.0
2014-Apr-19 16:26N 36°09' W 005°22'0 0.0
2014-Apr-19 15:32N 36°09' W 005°22'0 0.0
2014-Apr-19 14:29N 36°09' W 005°22'0 0.1
2014-Apr-19 13:26N 36°09' W 005°22'0 0.0
2014-Apr-19 11:32N 36°09' W 005°22'0 0.0
2014-Apr-19 09:32N 36°09' W 005°22'1 0.5
2014-Apr-19 08:24N 36°09' W 005°22'0 0.0
2014-Apr-19 07:15N 36°09' W 005°22'0 0.1
2014-Apr-19 06:33N 36°09' W 005°22'0 0.1
2014-Apr-19 05:33N 36°09' W 005°22'3 3.1
2014-Apr-19 04:33N 36°06' W 005°22'3 3.0
2014-Apr-19 03:33N 36°08' W 005°18'0 0.1
2014-Apr-19 02:33N 36°08' W 005°19'0 0.0
2014-Apr-19 01:30N 36°08' W 005°18'0 0.0
2014-Apr-19 00:33N 36°08' W 005°18'0 0.1
2014-Apr-18 23:33N 36°08' W 005°18'0 0.1
2014-Apr-18 22:33N 36°08' W 005°18'0 0.1
2014-Apr-18 21:33N 36°08' W 005°18'0 0.0
2014-Apr-18 20:33N 36°08' W 005°18'3 2.8
2014-Apr-18 19:33N 36°06' W 005°21'1 1.4
2014-Apr-18 18:33N 36°07' W 005°21'0 0.1
2014-Apr-18 17:33N 36°07' W 005°21'0 0.1
2014-Apr-18 16:33N 36°07' W 005°21'1 0.8
2014-Apr-18 15:33N 36°06' W 005°22'3 2.8
2014-Apr-18 14:31N 36°07' W 005°18'0 0.0
2014-Apr-18 13:28N 36°07' W 005°18'0 0.1
2014-Apr-18 12:31N 36°07' W 005°18'0 0.1
2014-Apr-18 11:31N 36°07' W 005°18'0 0.0
2014-Apr-18 10:31N 36°07' W 005°18'0 0.1
2014-Apr-18 09:31N 36°07' W 005°19'0 0.0
2014-Apr-18 08:31N 36°07' W 005°19'3 3.3
2014-Apr-18 07:33N 36°05' W 005°22'2 1.9
2014-Apr-18 06:29N 36°07' W 005°22'0 0.0
2014-Apr-18 05:32N 36°07' W 005°22'0 0.1
2014-Apr-18 04:32N 36°07' W 005°22'0 0.2
2014-Apr-18 03:32N 36°07' W 005°22'0 0.1
2014-Apr-18 02:32N 36°08' W 005°22'0 0.1
2014-Apr-18 01:32N 36°08' W 005°22'0 0.0
2014-Apr-18 00:32N 36°08' W 005°22'0 0.2
2014-Apr-17 23:26N 36°08' W 005°22'0 0.3
2014-Apr-17 22:32N 36°07' W 005°22'0 0.1
2014-Apr-17 21:32N 36°07' W 005°22'0 0.1
2014-Apr-17 20:32N 36°07' W 005°22'0 0.1
2014-Apr-17 19:32N 36°07' W 005°22'0 0.1
2014-Apr-17 18:32N 36°07' W 005°22'0 0.3
2014-Apr-17 17:32N 36°08' W 005°22'0 0.1
2014-Apr-17 16:32N 36°08' W 005°23'0 0.2
2014-Apr-17 15:31N 36°08' W 005°22'0 0.1
2014-Apr-17 14:31N 36°08' W 005°22'0 0.1
2014-Apr-17 13:31N 36°08' W 005°22'0 0.1
2014-Apr-17 12:31N 36°08' W 005°23'0 0.2
2014-Apr-17 11:28N 36°07' W 005°23'2 1.9
2014-Apr-17 10:31N 36°09' W 005°22'0 0.0
2014-Apr-17 09:31N 36°09' W 005°22'0 0.0
2014-Apr-17 08:31N 36°09' W 005°22'0 0.0
2014-Apr-17 07:31N 36°09' W 005°22'0 0.1
2014-Apr-17 06:31N 36°09' W 005°22'0 0.0
2014-Apr-17 05:31N 36°09' W 005°22'0 0.0
2014-Apr-17 04:28N 36°09' W 005°22'0 0.0
2014-Apr-17 03:31N 36°09' W 005°22'0 0.0
2014-Apr-17 02:31N 36°09' W 005°22'0 0.0
2014-Apr-17 01:31N 36°09' W 005°22'0 0.0
2014-Apr-17 00:31N 36°09' W 005°22'0 0.0
2014-Apr-16 23:28N 36°09' W 005°22'1 1.5
2014-Apr-16 22:33N 36°08' W 005°22'0 0.2
2014-Apr-16 21:32N 36°08' W 005°22'0 0.1
2014-Apr-16 20:32N 36°08' W 005°22'0 0.0
2014-Apr-16 19:32N 36°08' W 005°22'0 0.0
2014-Apr-16 18:29N 36°08' W 005°22'2 1.6
2014-Apr-16 17:32N 36°09' W 005°22'0 0.0
2014-Apr-16 16:32N 36°09' W 005°22'0 0.0
2014-Apr-16 15:32N 36°09' W 005°22'0 0.0
2014-Apr-16 14:32N 36°09' W 005°22'0 0.2
2014-Apr-16 13:32N 36°09' W 005°22'0 0.0
2014-Apr-16 12:32N 36°09' W 005°23'2 2.2
2014-Apr-16 11:34N 36°07' W 005°22'0 0.5
2014-Apr-16 10:30N 36°07' W 005°22'0 0.1
2014-Apr-16 09:33N 36°07' W 005°22'0 0.2
2014-Apr-16 08:33N 36°07' W 005°22'0 0.0
2014-Apr-16 07:33N 36°07' W 005°22'0 0.0
2014-Apr-16 06:33N 36°07' W 005°22'0 0.0
2014-Apr-16 05:33N 36°07' W 005°22'0 0.0
2014-Apr-16 04:33N 36°07' W 005°22'2 2.0
2014-Apr-16 03:27N 36°09' W 005°22'1 1.0
2014-Apr-16 02:32N 36°09' W 005°23'6 5.8
2014-Apr-16 01:34N 36°03' W 005°22'9 8.8
2014-Apr-16 00:34N 35°56' W 005°28'3 0.4
2014-Apr-15 17:33N 35°54' W 005°30'6 6.4
2014-Apr-15 16:34N 35°59' W 005°27'7 7.1
2014-Apr-15 15:33N 36°06' W 005°23'3 3.5
2014-Apr-15 14:34N 36°09' W 005°22'0 0.0
2014-Apr-15 12:34N 36°09' W 005°22'0 0.0
2014-Apr-15 11:34N 36°09' W 005°22'0 0.0
2014-Apr-15 10:34N 36°09' W 005°22'0 0.0
2014-Apr-15 06:34N 36°09' W 005°22'0 0.1
2014-Apr-15 05:34N 36°09' W 005°22'0 0.0
2014-Apr-15 03:33N 36°09' W 005°22'0 0.0
2014-Apr-15 02:33N 36°09' W 005°22'0 0.0
2014-Apr-15 01:33N 36°09' W 005°22'0 0.0
2014-Apr-15 00:30N 36°09' W 005°22'0 0.0
2014-Apr-14 23:33N 36°09' W 005°22'0 0.0
2014-Apr-14 22:33N 36°09' W 005°22'0 0.1
2014-Apr-14 21:33N 36°09' W 005°22'0 0.0
2014-Apr-14 20:33N 36°09' W 005°22'0 0.0
2014-Apr-14 19:33N 36°09' W 005°22'0 0.0
2014-Apr-14 18:33N 36°09' W 005°22'0 0.0
2014-Apr-14 17:33N 36°09' W 005°22'0 0.0
2014-Apr-14 16:33N 36°09' W 005°22'0 0.1
2014-Apr-14 15:33N 36°09' W 005°22'0 0.0
2014-Apr-14 14:33N 36°09' W 005°22'0 0.0
2014-Apr-14 13:33N 36°09' W 005°22'0 0.0
2014-Apr-14 11:33N 36°09' W 005°22'0 0.0
2014-Apr-14 10:33N 36°09' W 005°22'0 0.1
2014-Apr-14 09:33N 36°09' W 005°22'0 0.0
2014-Apr-14 08:30N 36°09' W 005°22'0 0.0
2014-Apr-14 07:30N 36°09' W 005°22'0 0.0
2014-Apr-14 06:32N 36°09' W 005°22'0 0.0
2014-Apr-14 05:32N 36°09' W 005°22'  

Dump ship's entire track history

sailing weather and tide predictions

Aegean Princess — ZDID9 — position and weather